Time;durP1;ratioP1;P1;durP2;ratioP2;P2;SDS_P1;SDS_P2;PMS_P1;PMS_P2;Temp;Humidity;BMP_temperature;BMP_pressure;BME280_temperature;BME280_humidity;BME280_pressure;Samples;Min_cycle;Max_cycle;Signal;HPM_P1;HPM_P2
2021/10/23 00:01:37;;;;;;;1.03;0.30;;;;;;;;;;5033326;28;20409;-61
2021/10/23 00:04:02;;;;;;;0.30;0.13;;;;;;;;;;5033857;28;20250;-62
2021/10/23 00:06:28;;;;;;;0.82;0.30;;;;;;;;;;5033706;28;20076;-62
2021/10/23 00:08:53;;;;;;;1.27;0.30;;;;;;;;;;5033781;28;20105;-62
2021/10/23 00:11:18;;;;;;;1.13;0.43;;;;;;;;;;5033532;28;20352;-61
2021/10/23 00:13:44;;;;;;;0.57;0.20;;;;;;;;;;5033695;28;20061;-62
2021/10/23 00:16:10;;;;;;;0.60;0.10;;;;;;;;;;5033298;28;20448;-62
2021/10/23 00:18:35;;;;;;;0.95;0.52;;;;;;;;;;5033508;28;20258;-61
2021/10/23 00:21:00;;;;;;;0.22;0.10;;;;;;;;;;5033361;28;20033;-62
2021/10/23 00:23:26;;;;;;;0.95;0.10;;;;;;;;;;5033350;28;20013;-61
2021/10/23 00:25:51;;;;;;;0.35;0.10;;;;;;;;;;5033506;28;20033;-62
2021/10/23 00:28:16;;;;;;;4.07;0.28;;;;;;;;;;5033371;28;20030;-62
2021/10/23 00:30:41;;;;;;;0.10;0.10;;;;;;;;;;5033363;28;20025;-62
2021/10/23 00:33:06;;;;;;;1.60;0.20;;;;;;;;;;5033342;28;20390;-61
2021/10/23 00:35:32;;;;;;;0.30;0.20;;;;;;;;;;5032976;28;20282;-62
2021/10/23 00:37:57;;;;;;;0.50;0.30;;;;;;;;;;5033242;28;20021;-61
2021/10/23 00:40:23;;;;;;;0.40;0.10;;;;;;;;;;5033062;28;20403;-61
2021/10/23 00:42:48;;;;;;;0.73;0.10;;;;;;;;;;5033211;28;20500;-62
2021/10/23 00:45:14;;;;;;;0.63;0.20;;;;;;;;;;5033149;28;20022;-61
2021/10/23 00:47:39;;;;;;;1.38;0.20;;;;;;;;;;5033156;28;20027;-62
2021/10/23 00:50:05;;;;;;;0.20;0.10;;;;;;;;;;5033087;28;20032;-62
2021/10/23 00:52:30;;;;;;;1.00;0.40;;;;;;;;;;5033140;28;20056;-62
2021/10/23 00:54:56;;;;;;;0.32;0.22;;;;;;;;;;5032843;28;20049;-61
2021/10/23 00:57:21;;;;;;;0.40;0.25;;;;;;;;;;5033189;28;20100;-62
2021/10/23 00:59:46;;;;;;;0.23;0.10;;;;;;;;;;5034993;28;20056;-61
2021/10/23 01:02:12;;;;;;;2.20;0.40;;;;;;;;;;5036862;28;20759;-62
2021/10/23 01:04:38;;;;;;;0.52;0.20;;;;;;;;;;5037118;28;20017;-62
2021/10/23 01:07:04;;;;;;;1.75;0.20;;;;;;;;;;5036951;28;20160;-62
2021/10/23 01:09:30;;;;;;;0.47;0.10;;;;;;;;;;5036807;28;20100;-62
2021/10/23 01:11:56;;;;;;;0.35;0.20;;;;;;;;;;5037024;28;20029;-61
2021/10/23 01:14:23;;;;;;;0.50;0.20;;;;;;;;;;5036926;28;20026;-61
2021/10/23 01:16:49;;;;;;;2.38;0.38;;;;;;;;;;5036770;28;20056;-62
2021/10/23 01:19:14;;;;;;;1.67;0.13;;;;;;;;;;5037010;28;20108;-62
2021/10/23 01:21:40;;;;;;;0.98;0.80;;;;;;;;;;5036485;28;20049;-62
2021/10/23 01:24:06;;;;;;;0.25;0.17;;;;;;;;;;5036985;28;20018;-62
2021/10/23 01:26:32;;;;;;;0.32;0.15;;;;;;;;;;5036576;28;20025;-61
2021/10/23 01:28:57;;;;;;;0.95;0.32;;;;;;;;;;5036811;28;20043;-61
2021/10/23 01:31:23;;;;;;;0.52;0.17;;;;;;;;;;5036689;28;20025;-62
2021/10/23 01:33:48;;;;;;;0.00;0.00;;;;;;;;;;5036606;28;20021;-62
2021/10/23 01:36:17;;;;;;;0.93;0.20;;;;;;;;;;5036471;28;20029;-62
2021/10/23 01:38:43;;;;;;;0.80;0.40;;;;;;;;;;5036406;28;20018;-62
2021/10/23 01:41:09;;;;;;;0.25;0.20;;;;;;;;;;5036162;28;20033;-62
2021/10/23 01:43:34;;;;;;;0.88;0.10;;;;;;;;;;5036345;28;20076;-62
2021/10/23 01:46:00;;;;;;;0.85;0.30;;;;;;;;;;5036555;28;20057;-61
2021/10/23 01:48:25;;;;;;;1.50;0.30;;;;;;;;;;5036177;28;20025;-61
2021/10/23 01:50:50;;;;;;;0.60;0.13;;;;;;;;;;5035901;28;20060;-62
2021/10/23 01:53:15;;;;;;;1.02;0.32;;;;;;;;;;5036460;28;20384;-61
2021/10/23 01:55:40;;;;;;;1.00;0.20;;;;;;;;;;5035650;28;20039;-62
2021/10/23 01:58:06;;;;;;;0.73;0.20;;;;;;;;;;5036416;28;20383;-62
2021/10/23 02:00:31;;;;;;;0.77;0.20;;;;;;;;;;5037574;23;20523;-62
2021/10/23 02:02:56;;;;;;;1.48;0.20;;;;;;;;;;5016350;28;20022;-62
2021/10/23 02:05:22;;;;;;;0.83;0.20;;;;;;;;;;5014903;28;20018;-61
2021/10/23 02:07:47;;;;;;;0.25;0.20;;;;;;;;;;5014902;28;20734;-61
2021/10/23 02:10:12;;;;;;;0.63;0.20;;;;;;;;;;5015857;28;20018;-62
2021/10/23 02:12:39;;;;;;;0.95;0.20;;;;;;;;;;5015790;28;20714;-61
2021/10/23 02:15:04;;;;;;;0.68;0.17;;;;;;;;;;5016122;28;20018;-62
2021/10/23 02:17:30;;;;;;;0.82;0.20;;;;;;;;;;5014820;28;20100;-62
2021/10/23 02:19:55;;;;;;;1.73;0.28;;;;;;;;;;5015839;28;20026;-62
2021/10/23 02:22:20;;;;;;;0.85;0.32;;;;;;;;;;5014759;28;20022;-62
2021/10/23 02:24:45;;;;;;;0.10;0.10;;;;;;;;;;5015572;28;20014;-62
2021/10/23 02:27:10;;;;;;;0.57;0.20;;;;;;;;;;5015950;28;20048;-61
2021/10/23 02:29:37;;;;;;;0.43;0.20;;;;;;;;;;5015714;28;20309;-61
2021/10/23 02:32:02;;;;;;;0.98;0.30;;;;;;;;;;5015938;28;20056;-61
2021/10/23 02:34:28;;;;;;;0.47;0.15;;;;;;;;;;5015669;28;20053;-61
2021/10/23 02:36:53;;;;;;;0.32;0.32;;;;;;;;;;5015409;28;20025;-62
2021/10/23 02:39:19;;;;;;;1.00;0.20;;;;;;;;;;5034862;28;20068;-62
2021/10/23 02:41:44;;;;;;;0.95;0.30;;;;;;;;;;5035324;28;20460;-62
2021/10/23 02:44:09;;;;;;;0.45;0.22;;;;;;;;;;5035138;28;20089;-61
2021/10/23 02:46:35;;;;;;;0.10;0.10;;;;;;;;;;5034835;28;20392;-61
2021/10/23 02:49:00;;;;;;;0.20;0.10;;;;;;;;;;5035474;28;20057;-61
2021/10/23 02:51:26;;;;;;;3.20;0.30;;;;;;;;;;5035019;28;20029;-61
2021/10/23 02:53:51;;;;;;;0.80;0.15;;;;;;;;;;5034998;28;20064;-61
2021/10/23 02:56:16;;;;;;;0.00;0.00;;;;;;;;;;5035280;28;20048;-61
2021/10/23 02:58:42;;;;;;;0.35;0.13;;;;;;;;;;5034780;28;20028;-63
2021/10/23 03:01:07;;;;;;;0.40;0.15;;;;;;;;;;5034763;28;20038;-62
2021/10/23 03:03:32;;;;;;;0.68;0.10;;;;;;;;;;5034958;28;20018;-61
2021/10/23 03:05:58;;;;;;;0.38;0.20;;;;;;;;;;5034644;28;20021;-62
2021/10/23 03:08:23;;;;;;;1.17;0.30;;;;;;;;;;5034924;28;20041;-61
2021/10/23 03:10:49;;;;;;;0.22;0.22;;;;;;;;;;5034592;28;20493;-61
2021/10/23 03:13:14;;;;;;;0.75;0.20;;;;;;;;;;5034783;28;20025;-62
2021/10/23 03:15:39;;;;;;;0.65;0.10;;;;;;;;;;5034203;28;20404;-62
2021/10/23 03:18:05;;;;;;;1.38;0.43;;;;;;;;;;5034759;28;20071;-62
2021/10/23 03:20:30;;;;;;;0.50;0.10;;;;;;;;;;5034490;28;20022;-63
2021/10/23 03:22:55;;;;;;;0.10;0.10;;;;;;;;;;5033784;28;20063;-61
2021/10/23 03:25:20;;;;;;;0.70;0.30;;;;;;;;;;5033053;28;20535;-61
2021/10/23 03:27:45;;;;;;;1.75;0.47;;;;;;;;;;5034447;28;20428;-62
2021/10/23 03:30:11;;;;;;;0.67;0.20;;;;;;;;;;5034549;28;20025;-61
2021/10/23 03:32:36;;;;;;;0.30;0.20;;;;;;;;;;5034039;28;20982;-61
2021/10/23 03:35:02;;;;;;;0.50;0.10;;;;;;;;;;5033168;28;20510;-62
2021/10/23 03:37:30;;;;;;;0.15;0.00;;;;;;;;;;5029752;28;20507;-61
2021/10/23 03:39:56;;;;;;;0.17;0.10;;;;;;;;;;5013162;28;20014;-62
2021/10/23 03:42:21;;;;;;;1.23;0.40;;;;;;;;;;5014131;28;20025;-62
2021/10/23 03:44:46;;;;;;;0.53;0.20;;;;;;;;;;5014422;28;20017;-61
2021/10/23 03:47:12;;;;;;;2.05;0.50;;;;;;;;;;5014067;28;20247;-61
2021/10/23 03:49:37;;;;;;;0.95;0.25;;;;;;;;;;5014279;28;20026;-61
2021/10/23 03:52:02;;;;;;;0.77;0.20;;;;;;;;;;5014307;28;20025;-61
2021/10/23 03:54:28;;;;;;;0.10;0.10;;;;;;;;;;5014122;28;20026;-62
2021/10/23 03:56:53;;;;;;;0.52;0.17;;;;;;;;;;5014048;28;20034;-62
2021/10/23 03:59:18;;;;;;;1.45;0.20;;;;;;;;;;5014046;28;20028;-61
2021/10/23 04:01:44;;;;;;;0.65;0.30;;;;;;;;;;5014047;28;20073;-61
2021/10/23 04:04:09;;;;;;;1.07;0.33;;;;;;;;;;5013966;28;20014;-61
2021/10/23 04:06:34;;;;;;;1.52;0.40;;;;;;;;;;5013968;28;20286;-61
2021/10/23 04:08:59;;;;;;;0.57;0.20;;;;;;;;;;5013893;28;20520;-62
2021/10/23 04:11:24;;;;;;;0.47;0.30;;;;;;;;;;5013656;28;20687;-62
2021/10/23 04:13:50;;;;;;;0.40;0.10;;;;;;;;;;5014021;28;20022;-62
2021/10/23 04:16:15;;;;;;;0.30;0.10;;;;;;;;;;5013854;28;20524;-62
2021/10/23 04:18:40;;;;;;;0.50;0.20;;;;;;;;;;5013572;28;20020;-61
2021/10/23 04:21:05;;;;;;;0.52;0.38;;;;;;;;;;5013941;28;20260;-62
2021/10/23 04:23:30;;;;;;;0.30;0.10;;;;;;;;;;5013614;28;20026;-61
2021/10/23 04:25:56;;;;;;;0.70;0.13;;;;;;;;;;5013716;28;20026;-61
2021/10/23 04:28:21;;;;;;;0.38;0.28;;;;;;;;;;5013857;28;20029;-62
2021/10/23 04:30:46;;;;;;;0.55;0.20;;;;;;;;;;5013673;28;20026;-62
2021/10/23 04:33:11;;;;;;;0.88;0.20;;;;;;;;;;5013607;28;20121;-62
2021/10/23 04:35:37;;;;;;;0.40;0.20;;;;;;;;;;5013141;28;20146;-62
2021/10/23 04:38:02;;;;;;;1.10;0.20;;;;;;;;;;5022378;28;20022;-61
2021/10/23 04:40:27;;;;;;;0.30;0.10;;;;;;;;;;5033339;28;20045;-61
2021/10/23 04:42:52;;;;;;;0.93;0.50;;;;;;;;;;5033119;28;20476;-61
2021/10/23 04:45:17;;;;;;;1.10;0.40;;;;;;;;;;5033292;28;20025;-61
2021/10/23 04:47:43;;;;;;;0.50;0.10;;;;;;;;;;5032955;28;20033;-62
2021/10/23 04:50:08;;;;;;;0.47;0.20;;;;;;;;;;5033426;28;20037;-62
2021/10/23 04:52:33;;;;;;;1.80;0.43;;;;;;;;;;5033048;28;20101;-61
2021/10/23 04:54:58;;;;;;;0.40;0.10;;;;;;;;;;5032862;28;20064;-63
2021/10/23 04:57:24;;;;;;;0.37;0.20;;;;;;;;;;5033083;28;20372;-61
2021/10/23 04:59:49;;;;;;;0.68;0.20;;;;;;;;;;5032775;28;20251;-62
2021/10/23 05:02:14;;;;;;;0.35;0.15;;;;;;;;;;5032902;28;20093;-62
2021/10/23 05:04:39;;;;;;;0.50;0.30;;;;;;;;;;5032910;28;20068;-61
2021/10/23 05:07:04;;;;;;;0.75;0.13;;;;;;;;;;5031011;28;20292;-62
2021/10/23 05:09:30;;;;;;;0.40;0.20;;;;;;;;;;5013202;28;20022;-62
2021/10/23 05:11:55;;;;;;;0.82;0.20;;;;;;;;;;5012985;28;20105;-62
2021/10/23 05:14:21;;;;;;;1.13;0.10;;;;;;;;;;5013113;28;20052;-61
2021/10/23 05:16:46;;;;;;;0.55;0.20;;;;;;;;;;5012801;28;20279;-62
2021/10/23 05:19:11;;;;;;;0.32;0.20;;;;;;;;;;5013337;28;20041;-61
2021/10/23 05:21:36;;;;;;;0.47;0.20;;;;;;;;;;5013016;28;20022;-62
2021/10/23 05:24:02;;;;;;;0.82;0.30;;;;;;;;;;5013265;28;20026;-62
2021/10/23 05:26:27;;;;;;;1.02;0.20;;;;;;;;;;5013035;28;20481;-62
2021/10/23 05:28:52;;;;;;;0.93;0.20;;;;;;;;;;5013061;28;20022;-61
2021/10/23 05:31:17;;;;;;;1.92;0.28;;;;;;;;;;5013195;28;20286;-62
2021/10/23 05:33:42;;;;;;;0.65;0.20;;;;;;;;;;5013008;28;20029;-61
2021/10/23 05:36:08;;;;;;;1.65;0.17;;;;;;;;;;5012724;28;20431;-62
2021/10/23 05:38:33;;;;;;;0.70;0.13;;;;;;;;;;5013052;28;20516;-62
2021/10/23 05:40:58;;;;;;;0.38;0.30;;;;;;;;;;5012752;28;20572;-61
2021/10/23 05:43:23;;;;;;;0.40;0.20;;;;;;;;;;5012919;28;20404;-62
2021/10/23 05:45:49;;;;;;;0.57;0.10;;;;;;;;;;5014807;28;20469;-62
2021/10/23 05:48:14;;;;;;;0.28;0.10;;;;;;;;;;5016680;28;20061;-62
2021/10/23 05:50:39;;;;;;;0.70;0.20;;;;;;;;;;5016382;28;20018;-63
2021/10/23 05:53:05;;;;;;;0.40;0.20;;;;;;;;;;5016537;28;20075;-62
2021/10/23 05:55:30;;;;;;;0.83;0.13;;;;;;;;;;5016426;28;20373;-61
2021/10/23 05:57:55;;;;;;;0.73;0.10;;;;;;;;;;5016247;28;20334;-61
2021/10/23 06:00:20;;;;;;;0.20;0.10;;;;;;;;;;5016340;28;20034;-62
2021/10/23 06:02:46;;;;;;;0.55;0.28;;;;;;;;;;5016136;28;20310;-61
2021/10/23 06:05:12;;;;;;;1.55;0.20;;;;;;;;;;5016239;28;20041;-62
2021/10/23 06:07:38;;;;;;;1.25;0.30;;;;;;;;;;5016187;28;20021;-62
2021/10/23 06:10:04;;;;;;;0.43;0.20;;;;;;;;;;5016271;28;20014;-62
2021/10/23 06:12:31;;;;;;;0.15;0.10;;;;;;;;;;5016081;28;20064;-62
2021/10/23 06:14:56;;;;;;;0.50;0.20;;;;;;;;;;5016187;28;20022;-62
2021/10/23 06:17:21;;;;;;;0.90;0.52;;;;;;;;;;5015870;28;20049;-62
2021/10/23 06:19:47;;;;;;;0.50;0.15;;;;;;;;;;5015972;28;20033;-61
2021/10/23 06:22:12;;;;;;;0.30;0.10;;;;;;;;;;5015939;28;20021;-61
2021/10/23 06:24:37;;;;;;;0.75;0.13;;;;;;;;;;5015913;28;20799;-61
2021/10/23 06:27:02;;;;;;;0.13;0.10;;;;;;;;;;5015979;28;20014;-62
2021/10/23 06:29:28;;;;;;;0.57;0.10;;;;;;;;;;5014655;28;20362;-62
2021/10/23 06:31:53;;;;;;;0.63;0.20;;;;;;;;;;5015908;28;20377;-62
2021/10/23 06:34:20;;;;;;;1.77;0.10;;;;;;;;;;5014428;28;20029;-63
2021/10/23 06:36:45;;;;;;;0.35;0.10;;;;;;;;;;5015616;28;20568;-61
2021/10/23 06:39:10;;;;;;;0.45;0.10;;;;;;;;;;5034156;28;20531;-62
2021/10/23 06:41:35;;;;;;;0.30;0.10;;;;;;;;;;5035376;28;20017;-62
2021/10/23 06:44:01;;;;;;;1.00;0.38;;;;;;;;;;5033982;28;20481;-62
2021/10/23 06:46:27;;;;;;;1.10;0.50;;;;;;;;;;5035085;28;20075;-62
2021/10/23 06:48:52;;;;;;;0.98;0.10;;;;;;;;;;5035089;28;20088;-63
2021/10/23 06:51:17;;;;;;;0.88;0.03;;;;;;;;;;5035407;28;20108;-62
2021/10/23 06:53:42;;;;;;;0.10;0.00;;;;;;;;;;5035012;28;20017;-62
2021/10/23 06:56:08;;;;;;;0.45;0.10;;;;;;;;;;5033748;28;20129;-63
2021/10/23 06:58:33;;;;;;;0.10;0.08;;;;;;;;;;5035008;28;20040;-61
2021/10/23 07:00:58;;;;;;;0.60;0.10;;;;;;;;;;5034990;28;20137;-62
2021/10/23 07:03:23;;;;;;;0.30;0.10;;;;;;;;;;5034821;28;20827;-62
2021/10/23 07:05:48;;;;;;;0.93;0.20;;;;;;;;;;5034548;28;20022;-62
2021/10/23 07:08:14;;;;;;;0.30;0.10;;;;;;;;;;5035189;28;20030;-62
2021/10/23 07:10:39;;;;;;;0.20;0.10;;;;;;;;;;5034568;28;20029;-62
2021/10/23 07:13:05;;;;;;;0.68;0.40;;;;;;;;;;5034923;28;20338;-62
2021/10/23 07:15:30;;;;;;;0.30;0.10;;;;;;;;;;5034688;28;20022;-62
2021/10/23 07:17:55;;;;;;;0.20;0.00;;;;;;;;;;5034602;28;20547;-62
2021/10/23 07:20:21;;;;;;;0.33;0.10;;;;;;;;;;5034598;28;20062;-61
2021/10/23 07:22:47;;;;;;;0.65;0.20;;;;;;;;;;5034500;28;20325;-62
2021/10/23 07:25:12;;;;;;;0.00;0.00;;;;;;;;;;5034493;28;20462;-62
2021/10/23 07:27:37;;;;;;;0.32;0.10;;;;;;;;;;5034026;28;20045;-61
2021/10/23 07:30:06;;;;;;;0.45;0.15;;;;;;;;;;5034626;28;20021;-62
2021/10/23 07:32:32;;;;;;;0.40;0.10;;;;;;;;;;5034421;28;20017;-61
2021/10/23 07:34:57;;;;;;;1.00;0.20;;;;;;;;;;5034454;28;20040;-62
2021/10/23 07:37:22;;;;;;;0.00;0.00;;;;;;;;;;5029254;28;20334;-62
2021/10/23 07:39:47;;;;;;;1.20;0.20;;;;;;;;;;5014579;28;20041;-62
2021/10/23 07:42:12;;;;;;;0.40;0.10;;;;;;;;;;5014394;28;20093;-62
2021/10/23 07:44:38;;;;;;;0.77;0.10;;;;;;;;;;5014288;28;20049;-62
2021/10/23 07:47:03;;;;;;;0.57;0.20;;;;;;;;;;5014413;28;20061;-62
2021/10/23 07:49:28;;;;;;;0.85;0.22;;;;;;;;;;5014411;28;20021;-63
2021/10/23 07:51:53;;;;;;;1.60;0.30;;;;;;;;;;5014199;28;20018;-62
2021/10/23 07:54:19;;;;;;;1.42;0.20;;;;;;;;;;5013047;28;20757;-61
2021/10/23 07:56:44;;;;;;;0.55;0.10;;;;;;;;;;5014090;28;20076;-62
2021/10/23 07:59:10;;;;;;;0.40;0.25;;;;;;;;;;5014134;28;20420;-62
2021/10/23 08:01:35;;;;;;;0.32;0.15;;;;;;;;;;5013949;28;20046;-62
2021/10/23 08:04:00;;;;;;;0.30;0.10;;;;;;;;;;5014135;28;20104;-62
2021/10/23 08:06:27;;;;;;;0.38;0.00;;;;;;;;;;5012881;28;20274;-63
2021/10/23 08:08:52;;;;;;;0.45;0.35;;;;;;;;;;5012451;28;20477;-62
2021/10/23 08:11:17;;;;;;;0.45;0.20;;;;;;;;;;5013825;28;20045;-62
2021/10/23 08:13:42;;;;;;;0.80;0.17;;;;;;;;;;5013893;28;20030;-63
2021/10/23 08:16:07;;;;;;;0.55;0.10;;;;;;;;;;5013948;28;20033;-61
2021/10/23 08:18:33;;;;;;;0.20;0.00;;;;;;;;;;5013807;28;20021;-61
2021/10/23 08:21:00;;;;;;;0.20;0.10;;;;;;;;;;5012714;28;20025;-62
2021/10/23 08:23:25;;;;;;;0.30;0.05;;;;;;;;;;5013735;28;20018;-62
2021/10/23 08:25:51;;;;;;;0.38;0.10;;;;;;;;;;5013759;28;20014;-62
2021/10/23 08:28:16;;;;;;;0.65;0.20;;;;;;;;;;5013591;28;20032;-62
2021/10/23 08:30:41;;;;;;;0.20;0.10;;;;;;;;;;5013667;28;20033;-62
2021/10/23 08:33:06;;;;;;;0.10;0.03;;;;;;;;;;5012469;28;20026;-62
2021/10/23 08:35:32;;;;;;;0.57;0.22;;;;;;;;;;5013315;28;20392;-62
2021/10/23 08:37:58;;;;;;;0.57;0.00;;;;;;;;;;5022058;28;20483;-62
2021/10/23 08:40:24;;;;;;;0.73;0.30;;;;;;;;;;5033153;28;20358;-63
2021/10/23 08:42:49;;;;;;;0.10;0.00;;;;;;;;;;5033310;28;20032;-62
2021/10/23 08:45:15;;;;;;;1.50;0.10;;;;;;;;;;5033396;28;20165;-61
2021/10/23 08:47:41;;;;;;;0.40;0.10;;;;;;;;;;5031944;28;20104;-62
2021/10/23 08:50:09;;;;;;;0.30;0.00;;;;;;;;;;5033082;28;20025;-61
2021/10/23 08:52:34;;;;;;;0.68;0.10;;;;;;;;;;5032768;28;20032;-61
2021/10/23 08:54:59;;;;;;;1.13;0.30;;;;;;;;;;5033272;28;20029;-61
2021/10/23 08:57:26;;;;;;;0.52;0.20;;;;;;;;;;5033049;28;20021;-61
2021/10/23 08:59:51;;;;;;;0.47;0.20;;;;;;;;;;5031656;28;20040;-62
2021/10/23 09:02:18;;;;;;;0.57;0.15;;;;;;;;;;5033059;28;20484;-63
2021/10/23 09:04:43;;;;;;;0.40;0.10;;;;;;;;;;5033036;28;20025;-62
2021/10/23 09:07:12;;;;;;;0.73;0.13;;;;;;;;;;5030504;28;20041;-62
2021/10/23 09:09:46;;;;;;;1.15;0.20;;;;;;;;;;5011746;28;20022;-63
2021/10/23 09:12:11;;;;;;;;;;;;;;;;;;5013495;28;20025;-62
2021/10/23 09:14:38;;;;;;;0.10;0.10;;;;;;;;;;5013137;28;19913;-62
2021/10/23 09:17:03;;;;;;;0.47;0.17;;;;;;;;;;5013417;28;20018;-61
2021/10/23 09:19:32;;;;;;;0.20;0.00;;;;;;;;;;5013093;28;20018;-62
2021/10/23 09:21:57;;;;;;;1.45;0.17;;;;;;;;;;5016875;28;20020;-62
2021/10/23 09:24:23;;;;;;;0.52;0.20;;;;;;;;;;5017081;28;20025;-61
2021/10/23 09:26:50;;;;;;;0.68;0.20;;;;;;;;;;5017081;28;20018;-62
2021/10/23 09:29:19;;;;;;;0.05;0.00;;;;;;;;;;5016974;28;20025;-62
2021/10/23 09:31:46;;;;;;;0.30;0.20;;;;;;;;;;5016541;28;20053;-61
2021/10/23 09:34:11;;;;;;;0.85;0.10;;;;;;;;;;5016934;28;20018;-62
2021/10/23 09:36:42;;;;;;;0.25;0.10;;;;;;;;;;5016725;28;20404;-63
2021/10/23 09:39:08;;;;;;;0.93;0.15;;;;;;;;;;5016841;28;20024;-62
2021/10/23 09:41:33;;;;;;;0.40;0.10;;;;;;;;;;5016696;28;20014;-62
2021/10/23 09:44:16;;;;;;;0.52;0.10;;;;;;;;;;5016762;28;20372;-62
2021/10/23 09:46:52;;;;;;;0.93;0.00;;;;;;;;;;5016701;28;20018;-62
2021/10/23 09:49:17;;;;;;;0.30;0.22;;;;;;;;;;5016563;28;20457;-62
2021/10/23 09:51:42;;;;;;;0.95;0.15;;;;;;;;;;5015250;28;20034;-61
2021/10/23 09:54:14;;;;;;;0.20;0.17;;;;;;;;;;5016472;28;20030;-62
2021/10/23 09:56:48;;;;;;;0.95;0.10;;;;;;;;;;5016238;28;20041;-61
2021/10/23 09:59:13;;;;;;;;;;;;;;;;;;5016752;28;20041;-61
2021/10/23 10:01:42;;;;;;;0.65;0.10;;;;;;;;;;5016200;28;19921;-62
2021/10/23 10:04:12;;;;;;;1.50;0.20;;;;;;;;;;5016509;28;20018;-61
2021/10/23 10:06:38;;;;;;;0.80;0.10;;;;;;;;;;5016251;28;20026;-61
2021/10/23 10:09:05;;;;;;;0.30;0.10;;;;;;;;;;5016399;28;20026;-62
2021/10/23 10:11:31;;;;;;;0.10;0.00;;;;;;;;;;5016052;28;20040;-61
2021/10/23 10:13:57;;;;;;;0.50;0.30;;;;;;;;;;5016275;28;20350;-62
2021/10/23 10:16:25;;;;;;;0.35;0.20;;;;;;;;;;5015823;28;20032;-63
2021/10/23 10:18:52;;;;;;;0.65;0.10;;;;;;;;;;5016250;28;20018;-62
2021/10/23 10:21:18;;;;;;;0.20;0.10;;;;;;;;;;5016212;28;20022;-62
2021/10/23 10:23:44;;;;;;;0.17;0.10;;;;;;;;;;5015970;28;20334;-62
2021/10/23 10:26:19;;;;;;;0.22;0.10;;;;;;;;;;5015845;28;20377;-62
2021/10/23 10:29:03;;;;;;;0.10;0.00;;;;;;;;;;5015785;28;20076;-63
2021/10/23 10:31:45;;;;;;;0.85;0.20;;;;;;;;;;5015501;28;20029;-62
2021/10/23 10:34:14;;;;;;;0.22;0.10;;;;;;;;;;5015751;28;20033;-62
2021/10/23 10:37:01;;;;;;;0.60;0.17;;;;;;;;;;5015429;28;20029;-62
2021/10/23 10:39:54;;;;;;;0.20;0.10;;;;;;;;;;4995996;28;20025;-62
2021/10/23 10:45:23;;;;;;;0.95;0.10;;;;;;;;;;4996249;28;20049;-62
2021/10/23 10:48:06;;;;;;;0.77;0.20;;;;;;;;;;4995842;28;20027;-61
2021/10/23 10:50:36;;;;;;;0.70;0.30;;;;;;;;;;4995982;28;20034;-62
2021/10/23 10:53:24;;;;;;;1.33;0.20;;;;;;;;;;4996023;28;20370;-62
2021/10/23 10:55:49;;;;;;;0.30;0.00;;;;;;;;;;4992352;28;20046;-62
2021/10/23 10:58:15;;;;;;;0.65;0.10;;;;;;;;;;4995976;28;20030;-62
2021/10/23 11:00:52;;;;;;;0.75;0.32;;;;;;;;;;4995413;28;20081;-62
2021/10/23 11:03:36;;;;;;;0.60;0.10;;;;;;;;;;4995759;28;20073;-62
2021/10/23 11:06:01;;;;;;;;;;;;;;;;;;4996203;28;20102;-61
2021/10/23 11:08:27;;;;;;;0.60;0.20;;;;;;;;;;4995361;28;19952;-62
2021/10/23 11:10:52;;;;;;;0.38;0.10;;;;;;;;;;4995271;28;20307;-62
2021/10/23 11:13:24;;;;;;;0.63;0.20;;;;;;;;;;4995588;28;20026;-61
2021/10/23 11:15:49;;;;;;;1.05;0.25;;;;;;;;;;4995072;28;20800;-61
2021/10/23 11:18:16;;;;;;;1.52;0.25;;;;;;;;;;4995646;28;20050;-62
2021/10/23 11:20:42;;;;;;;0.47;0.10;;;;;;;;;;4995139;28;20113;-62
2021/10/23 11:23:08;;;;;;;0.80;0.20;;;;;;;;;;4995493;28;20338;-62
2021/10/23 11:25:33;;;;;;;0.00;0.00;;;;;;;;;;4995041;28;20026;-62
2021/10/23 11:27:59;;;;;;;0.70;0.10;;;;;;;;;;4995300;28;20022;-62
2021/10/23 11:30:26;;;;;;;0.70;0.10;;;;;;;;;;4994855;28;20382;-62
2021/10/23 11:32:53;;;;;;;1.40;0.20;;;;;;;;;;4995310;28;20365;-62
2021/10/23 11:35:29;;;;;;;1.63;0.10;;;;;;;;;;4995199;28;20014;-61
2021/10/23 11:37:54;;;;;;;0.43;0.00;;;;;;;;;;5010673;28;20077;-62
2021/10/23 11:40:19;;;;;;;0.43;0.30;;;;;;;;;;5034424;28;20613;-61
2021/10/23 11:42:46;;;;;;;0.82;0.10;;;;;;;;;;5033422;28;20079;-62
2021/10/23 11:45:16;;;;;;;0.55;0.30;;;;;;;;;;5034245;28;20025;-63
2021/10/23 11:47:41;;;;;;;1.58;0.10;;;;;;;;;;5033933;28;20105;-62
2021/10/23 11:50:16;;;;;;;0.22;0.10;;;;;;;;;;5034317;28;20103;-62
2021/10/23 11:52:46;;;;;;;0.25;0.10;;;;;;;;;;5033976;28;20544;-62
2021/10/23 11:55:15;;;;;;;0.20;0.20;;;;;;;;;;5034081;28;20017;-62
2021/10/23 11:57:41;;;;;;;0.10;0.00;;;;;;;;;;5034079;28;20591;-62
2021/10/23 12:00:14;;;;;;;0.30;0.08;;;;;;;;;;5033594;28;20061;-62
2021/10/23 12:02:44;;;;;;;0.50;0.17;;;;;;;;;;5033991;28;20444;-62
2021/10/23 12:05:42;;;;;;;0.22;0.00;;;;;;;;;;5033644;28;20020;-63
2021/10/23 12:08:07;;;;;;;1.20;0.20;;;;;;;;;;4953491;29;20035;-62
2021/10/23 12:10:33;;;;;;;0.60;0.20;;;;;;;;;;4953158;29;20035;-63
2021/10/23 12:13:14;;;;;;;0.08;0.00;;;;;;;;;;4953637;29;20019;-61
2021/10/23 12:15:39;;;;;;;0.30;0.03;;;;;;;;;;4953155;29;20066;-62
2021/10/23 12:18:07;;;;;;;0.35;0.10;;;;;;;;;;4953471;29;20063;-61
2021/10/23 12:20:35;;;;;;;0.73;0.10;;;;;;;;;;4953482;29;20058;-63
2021/10/23 12:23:00;;;;;;;0.85;0.17;;;;;;;;;;4953548;29;20019;-62
2021/10/23 12:25:29;;;;;;;0.45;0.20;;;;;;;;;;4953281;29;20038;-62
2021/10/23 12:27:59;;;;;;;0.20;0.10;;;;;;;;;;4953332;29;20082;-62
2021/10/23 12:30:24;;;;;;;0.32;0.10;;;;;;;;;;4953259;29;20035;-63
2021/10/23 12:32:49;;;;;;;1.75;0.45;;;;;;;;;;4953253;29;20023;-62
2021/10/23 12:35:21;;;;;;;0.40;0.20;;;;;;;;;;4953025;29;20408;-63
2021/10/23 12:37:50;;;;;;;1.95;0.10;;;;;;;;;;4946506;29;20270;-62
2021/10/23 12:40:28;;;;;;;0.43;0.10;;;;;;;;;;4934115;29;20043;-61
2021/10/23 12:42:57;;;;;;;0.80;0.10;;;;;;;;;;4946663;28;20034;-63
2021/10/23 12:45:23;;;;;;;0.52;0.20;;;;;;;;;;5013502;28;20026;-61
2021/10/23 12:47:49;;;;;;;0.28;0.10;;;;;;;;;;5013636;28;20064;-62
2021/10/23 12:50:15;;;;;;;0.73;0.20;;;;;;;;;;5013551;28;20059;-62
2021/10/23 12:52:41;;;;;;;1.13;0.10;;;;;;;;;;5013438;28;20021;-62
2021/10/23 12:55:07;;;;;;;1.65;0.30;;;;;;;;;;5013551;28;20539;-62
2021/10/23 12:57:33;;;;;;;0.35;0.13;;;;;;;;;;5013149;28;20018;-63
2021/10/23 12:59:58;;;;;;;0.25;0.20;;;;;;;;;;5013074;28;20040;-63
2021/10/23 13:02:23;;;;;;;0.50;0.20;;;;;;;;;;5013403;28;20048;-62
2021/10/23 13:04:49;;;;;;;0.50;0.10;;;;;;;;;;5013220;28;20558;-62
2021/10/23 13:07:15;;;;;;;0.30;0.10;;;;;;;;;;5013263;28;20033;-62
2021/10/23 13:09:40;;;;;;;0.10;0.10;;;;;;;;;;5013197;28;20064;-62
2021/10/23 13:12:05;;;;;;;1.13;0.20;;;;;;;;;;5013359;28;20512;-62
2021/10/23 13:14:30;;;;;;;0.80;0.20;;;;;;;;;;5013404;28;20421;-62
2021/10/23 13:16:56;;;;;;;0.55;0.28;;;;;;;;;;5013207;28;20040;-62
2021/10/23 13:19:21;;;;;;;0.25;0.10;;;;;;;;;;5013017;28;20033;-62
2021/10/23 13:21:46;;;;;;;0.60;0.10;;;;;;;;;;5013278;28;20026;-63
2021/10/23 13:24:11;;;;;;;0.15;0.05;;;;;;;;;;5013147;28;20026;-62
2021/10/23 13:26:38;;;;;;;0.30;0.10;;;;;;;;;;5013216;28;20331;-63
2021/10/23 13:29:03;;;;;;;1.20;0.20;;;;;;;;;;5013137;28;20254;-61
2021/10/23 13:31:28;;;;;;;1.20;0.17;;;;;;;;;;5013008;28;20030;-62
2021/10/23 13:33:56;;;;;;;0.90;0.47;;;;;;;;;;5013253;28;20109;-62
2021/10/23 13:36:21;;;;;;;0.28;0.10;;;;;;;;;;5013155;28;20102;-62
2021/10/23 13:38:46;;;;;;;2.00;0.20;;;;;;;;;;5028019;28;20025;-62
2021/10/23 13:41:11;;;;;;;0.47;0.10;;;;;;;;;;5032906;28;20247;-63
2021/10/23 13:43:38;;;;;;;0.50;0.15;;;;;;;;;;5032657;28;20456;-63
2021/10/23 13:46:03;;;;;;;0.88;0.20;;;;;;;;;;5032744;28;20059;-63
2021/10/23 13:48:28;;;;;;;2.38;0.30;;;;;;;;;;5032631;28;20101;-62
2021/10/23 13:50:55;;;;;;;0.20;0.08;;;;;;;;;;5032452;28;20025;-62
2021/10/23 13:53:20;;;;;;;0.85;0.08;;;;;;;;;;5032688;28;20091;-63
2021/10/23 13:55:45;;;;;;;0.75;0.10;;;;;;;;;;5032590;28;20053;-62
2021/10/23 13:58:10;;;;;;;0.60;0.10;;;;;;;;;;5032661;28;20382;-62
2021/10/23 14:00:38;;;;;;;0.80;0.30;;;;;;;;;;5032298;28;20091;-63
2021/10/23 14:03:03;;;;;;;1.58;0.40;;;;;;;;;;5032409;28;20251;-62
2021/10/23 14:05:29;;;;;;;0.32;0.15;;;;;;;;;;5032638;28;20025;-63
2021/10/23 14:07:54;;;;;;;0.63;0.10;;;;;;;;;;5035866;28;20029;-63
2021/10/23 14:10:19;;;;;;;0.82;0.03;;;;;;;;;;5036112;28;20021;-62
2021/10/23 14:12:45;;;;;;;0.52;0.20;;;;;;;;;;5035881;28;20017;-62
2021/10/23 14:15:11;;;;;;;1.38;0.10;;;;;;;;;;5036020;28;20071;-62
2021/10/23 14:17:36;;;;;;;0.43;0.00;;;;;;;;;;5016565;28;20068;-62
2021/10/23 14:20:01;;;;;;;0.38;0.20;;;;;;;;;;5016381;28;20063;-62
2021/10/23 14:22:26;;;;;;;0.50;0.20;;;;;;;;;;5015759;28;20041;-62
2021/10/23 14:24:52;;;;;;;0.38;0.10;;;;;;;;;;5015250;28;20025;-62
2021/10/23 14:30:02;;;;;;;1.20;0.32;;;;;;;;;;5016379;28;20075;-62
2021/10/23 14:32:27;;;;;;;0.10;0.10;;;;;;;;;;5015859;28;20097;-63
2021/10/23 14:34:53;;;;;;;0.47;0.40;;;;;;;;;;5015765;28;20024;-63
2021/10/23 14:37:18;;;;;;;0.65;0.10;;;;;;;;;;5018528;28;20095;-62
2021/10/23 14:39:44;;;;;;;0.10;0.10;;;;;;;;;;5035466;28;20029;-63
2021/10/23 14:42:09;;;;;;;0.80;0.20;;;;;;;;;;5035455;28;20269;-62
2021/10/23 14:44:34;;;;;;;0.55;0.10;;;;;;;;;;5035287;28;20024;-62